Time;durP1;ratioP1;P1;durP2;ratioP2;P2;SDS_P1;SDS_P2;PMS_P1;PMS_P2;Temp;Humidity;BMP_temperature;BMP_pressure;BME280_temperature;BME280_humidity;BME280_pressure;Samples;Min_cycle;Max_cycle;Signal;HPM_P1;HPM_P2
2022/05/21 00:02:22;;;;;;;3.73;2.87;;;;;;;;;;4970384;28;20190;-73
2022/05/21 00:04:48;;;;;;;3.53;3.23;;;;;;;;;;4973304;28;20596;-73
2022/05/21 00:07:14;;;;;;;4.10;2.90;;;;;;;;;;4974443;28;21044;-71
2022/05/21 00:09:40;;;;;;;4.50;3.50;;;;;;;;;;4974182;28;20329;-73
2022/05/21 00:12:07;;;;;;;4.97;3.93;;;;;;;;;;4969452;28;20282;-72
2022/05/21 00:14:34;;;;;;;5.30;3.43;;;;;;;;;;4958150;28;20240;-73
2022/05/21 00:17:00;;;;;;;4.40;3.50;;;;;;;;;;4960170;28;20185;-72
2022/05/21 00:19:26;;;;;;;4.97;3.70;;;;;;;;;;4955030;28;21853;-72
2022/05/21 00:21:52;;;;;;;3.60;3.27;;;;;;;;;;4958400;28;20682;-73
2022/05/21 00:24:18;;;;;;;4.97;3.87;;;;;;;;;;4959047;28;20194;-72
2022/05/21 00:26:44;;;;;;;7.77;3.90;;;;;;;;;;4966145;28;20567;-73
2022/05/21 00:29:10;;;;;;;7.77;4.57;;;;;;;;;;4976292;28;20648;-72
2022/05/21 00:31:36;;;;;;;5.00;4.07;;;;;;;;;;4969051;28;20190;-73
2022/05/21 00:34:02;;;;;;;7.70;4.70;;;;;;;;;;4974341;28;20229;-72
2022/05/21 00:36:29;;;;;;;5.60;3.90;;;;;;;;;;4971263;28;20211;-73
2022/05/21 00:38:55;;;;;;;4.70;4.20;;;;;;;;;;4968105;28;20214;-74
2022/05/21 00:41:21;;;;;;;5.80;4.93;;;;;;;;;;4973069;28;20679;-72
2022/05/21 00:43:48;;;;;;;6.07;4.30;;;;;;;;;;4971574;28;20193;-72
2022/05/21 00:46:25;;;;;;;4.97;4.37;;;;;;;;;;4968094;28;20189;-73
2022/05/21 00:48:52;;;;;;;7.30;5.03;;;;;;;;;;4969820;28;20198;-73
2022/05/21 00:51:20;;;;;;;6.00;4.23;;;;;;;;;;4950076;28;20667;-73
2022/05/21 00:53:46;;;;;;;5.80;4.67;;;;;;;;;;4952392;28;20218;-72
2022/05/21 00:56:12;;;;;;;5.70;4.60;;;;;;;;;;4969617;28;20708;-73
2022/05/21 01:01:22;;;;;;;7.43;5.57;;;;;;;;;;4964132;28;20190;-73
2022/05/21 01:03:48;;;;;;;10.40;5.57;;;;;;;;;;4961244;28;20234;-72
2022/05/21 01:06:14;;;;;;;5.50;5.00;;;;;;;;;;4976099;28;20726;-72
2022/05/21 01:08:40;;;;;;;5.47;4.97;;;;;;;;;;4961839;28;20195;-72
2022/05/21 01:11:08;;;;;;;6.63;4.97;;;;;;;;;;4970802;28;20191;-72
2022/05/21 01:13:34;;;;;;;5.93;5.33;;;;;;;;;;4969333;28;20250;-73
2022/05/21 01:16:00;;;;;;;7.37;5.90;;;;;;;;;;4970419;28;20644;-72
2022/05/21 01:18:26;;;;;;;6.80;5.70;;;;;;;;;;4976482;28;20210;-73
2022/05/21 01:20:56;;;;;;;7.57;6.13;;;;;;;;;;4970799;28;20554;-72
2022/05/21 01:23:22;;;;;;;6.30;5.60;;;;;;;;;;4971160;28;20415;-72
2022/05/21 01:25:48;;;;;;;6.17;5.57;;;;;;;;;;4980885;28;20178;-74
2022/05/21 01:28:15;;;;;;;6.73;5.83;;;;;;;;;;4952061;28;20205;-72
2022/05/21 01:30:45;;;;;;;6.37;5.53;;;;;;;;;;4966852;28;20187;-72
2022/05/21 01:33:12;;;;;;;6.63;5.80;;;;;;;;;;4975793;28;20839;-73
2022/05/21 01:35:39;;;;;;;6.27;5.67;;;;;;;;;;4976143;28;20194;-72
2022/05/21 01:38:05;;;;;;;7.63;5.60;;;;;;;;;;4969888;28;20214;-71
2022/05/21 01:40:31;;;;;;;6.33;5.60;;;;;;;;;;4970500;28;20182;-73
2022/05/21 01:45:41;;;;;;;10.03;6.33;;;;;;;;;;4975197;28;20710;-72
2022/05/21 01:48:07;;;;;;;6.93;5.97;;;;;;;;;;4969323;28;20187;-72
2022/05/21 01:50:33;;;;;;;7.57;5.77;;;;;;;;;;4968750;28;20198;-73
2022/05/21 01:52:59;;;;;;;8.53;6.03;;;;;;;;;;4974585;28;20323;-72
2022/05/21 01:55:25;;;;;;;6.30;5.70;;;;;;;;;;4971804;28;20225;-72
2022/05/21 01:57:51;;;;;;;6.50;5.50;;;;;;;;;;4972409;28;20217;-73
2022/05/21 02:00:18;;;;;;;7.00;6.13;;;;;;;;;;4970831;28;20276;-72
2022/05/21 02:02:44;;;;;;;8.50;5.70;;;;;;;;;;4976327;28;20565;-74
2022/05/21 02:05:10;;;;;;;10.07;5.93;;;;;;;;;;4972509;28;20205;-73
2022/05/21 02:07:36;;;;;;;6.63;5.50;;;;;;;;;;4952325;28;20239;-73
2022/05/21 02:10:02;;;;;;;6.83;5.40;;;;;;;;;;4971621;28;20683;-73
2022/05/21 02:12:28;;;;;;;7.10;5.07;;;;;;;;;;4968078;28;20246;-72
2022/05/21 02:14:57;;;;;;;5.93;4.70;;;;;;;;;;4968966;28;20567;-73
2022/05/21 02:17:23;;;;;;;5.50;4.70;;;;;;;;;;4971623;28;20186;-74
2022/05/21 02:19:49;;;;;;;6.20;4.60;;;;;;;;;;4961298;28;20248;-73
2022/05/21 02:22:15;;;;;;;8.47;4.57;;;;;;;;;;4972164;28;20195;-73
2022/05/21 02:24:41;;;;;;;7.27;4.60;;;;;;;;;;4974036;28;20662;-73
2022/05/21 02:27:11;;;;;;;5.93;4.63;;;;;;;;;;4970429;28;20274;-73
2022/05/21 02:29:37;;;;;;;9.73;4.10;;;;;;;;;;4968864;28;20318;-72
2022/05/21 02:32:04;;;;;;;7.50;4.50;;;;;;;;;;4956669;28;20571;-73
2022/05/21 02:34:30;;;;;;;6.93;3.57;;;;;;;;;;4975034;28;20185;-73
2022/05/21 02:39:41;;;;;;;5.43;3.50;;;;;;;;;;4970685;28;20252;-72
2022/05/21 02:44:51;;;;;;;4.77;3.43;;;;;;;;;;4967793;28;20737;-72
2022/05/21 02:47:17;;;;;;;4.43;3.47;;;;;;;;;;4970636;28;20194;-72
2022/05/21 02:49:43;;;;;;;5.37;3.10;;;;;;;;;;4970853;28;20265;-73
2022/05/21 02:52:09;;;;;;;3.63;3.00;;;;;;;;;;4970774;28;20324;-72
2022/05/21 02:54:35;;;;;;;5.83;2.67;;;;;;;;;;4974195;28;20265;-73
2022/05/21 02:57:01;;;;;;;3.23;2.80;;;;;;;;;;4974876;28;20760;-72
2022/05/21 02:59:29;;;;;;;5.33;3.00;;;;;;;;;;4972964;28;20699;-74
2022/05/21 03:01:55;;;;;;;5.70;3.40;;;;;;;;;;4968975;28;20662;-72
2022/05/21 03:04:21;;;;;;;5.73;2.77;;;;;;;;;;4976004;28;20276;-72
2022/05/21 03:06:47;;;;;;;4.33;2.73;;;;;;;;;;4971038;28;20398;-72
2022/05/21 03:11:57;;;;;;;4.63;2.50;;;;;;;;;;4970946;28;20218;-72
2022/05/21 03:14:23;;;;;;;4.70;2.70;;;;;;;;;;4966968;28;20195;-73
2022/05/21 03:16:49;;;;;;;4.67;2.73;;;;;;;;;;4974759;28;20217;-72
2022/05/21 03:19:15;;;;;;;5.53;2.70;;;;;;;;;;4975831;28;20341;-71
2022/05/21 03:21:41;;;;;;;3.13;2.40;;;;;;;;;;4968824;28;20191;-73
2022/05/21 03:24:08;;;;;;;6.20;2.60;;;;;;;;;;4972254;28;20187;-72
2022/05/21 03:26:35;;;;;;;4.47;2.23;;;;;;;;;;4977552;28;20585;-72
2022/05/21 03:29:01;;;;;;;5.00;2.30;;;;;;;;;;4967168;28;20190;-73
2022/05/21 03:31:27;;;;;;;5.93;2.60;;;;;;;;;;4970856;28;20383;-72
2022/05/21 03:33:53;;;;;;;3.87;2.20;;;;;;;;;;4959094;28;20189;-72
2022/05/21 03:36:19;;;;;;;5.13;2.67;;;;;;;;;;4969519;28;20285;-73
2022/05/21 03:38:45;;;;;;;4.03;2.53;;;;;;;;;;4967741;28;20218;-72
2022/05/21 03:41:10;;;;;;;5.67;2.57;;;;;;;;;;4970544;28;20321;-72
2022/05/21 03:43:36;;;;;;;5.93;2.53;;;;;;;;;;4974209;28;20714;-73
2022/05/21 03:46:04;;;;;;;5.13;2.50;;;;;;;;;;4952958;28;20200;-73
2022/05/21 03:48:29;;;;;;;3.93;2.40;;;;;;;;;;4973804;28;20738;-73
2022/05/21 03:50:55;;;;;;;6.37;2.40;;;;;;;;;;4963889;28;20199;-72
2022/05/21 03:53:21;;;;;;;4.97;2.53;;;;;;;;;;4961478;28;20191;-72
2022/05/21 03:55:48;;;;;;;5.70;2.27;;;;;;;;;;4973874;28;20561;-72
2022/05/21 03:58:15;;;;;;;5.27;2.57;;;;;;;;;;4975123;28;20245;-74
2022/05/21 04:00:41;;;;;;;5.73;2.70;;;;;;;;;;4970421;28;20194;-73
2022/05/21 04:03:07;;;;;;;5.73;2.27;;;;;;;;;;4969799;28;20242;-72
2022/05/21 04:05:33;;;;;;;4.50;2.10;;;;;;;;;;4968806;28;20260;-72
2022/05/21 04:07:59;;;;;;;4.60;2.60;;;;;;;;;;4975164;28;20201;-72
2022/05/21 04:10:25;;;;;;;7.67;3.27;;;;;;;;;;4975327;28;20706;-72
2022/05/21 04:12:50;;;;;;;5.90;2.80;;;;;;;;;;4961968;28;20293;-72
2022/05/21 04:15:16;;;;;;;5.43;2.27;;;;;;;;;;4969508;28;20265;-72
2022/05/21 04:17:42;;;;;;;4.90;2.40;;;;;;;;;;4975228;28;20268;-73
2022/05/21 04:20:10;;;;;;;4.60;2.00;;;;;;;;;;4966770;28;20194;-72
2022/05/21 04:22:36;;;;;;;4.60;2.20;;;;;;;;;;4971204;28;20171;-73
2022/05/21 04:25:06;;;;;;;6.23;2.47;;;;;;;;;;4975605;28;20221;-72
2022/05/21 04:27:32;;;;;;;6.80;2.60;;;;;;;;;;4964070;28;20273;-73
2022/05/21 04:29:58;;;;;;;4.27;2.27;;;;;;;;;;4972112;28;20183;-73
2022/05/21 04:32:24;;;;;;;6.23;2.57;;;;;;;;;;4970886;28;20205;-74
2022/05/21 04:34:50;;;;;;;4.00;2.50;;;;;;;;;;4968479;28;20194;-73
2022/05/21 04:37:16;;;;;;;5.03;2.10;;;;;;;;;;4970475;28;20644;-72
2022/05/21 04:39:42;;;;;;;5.97;2.27;;;;;;;;;;4969181;28;20199;-73
2022/05/21 04:42:08;;;;;;;5.57;2.60;;;;;;;;;;4972568;28;20245;-72
2022/05/21 04:44:35;;;;;;;4.30;2.40;;;;;;;;;;4966234;28;20190;-73
2022/05/21 04:47:02;;;;;;;4.73;2.00;;;;;;;;;;4972405;28;20209;-72
2022/05/21 04:49:28;;;;;;;5.97;2.73;;;;;;;;;;4964619;28;21618;-73
2022/05/21 04:51:54;;;;;;;4.33;2.67;;;;;;;;;;4970265;28;20282;-74
2022/05/21 04:54:20;;;;;;;4.00;2.17;;;;;;;;;;4975544;28;20191;-73
2022/05/21 04:56:46;;;;;;;7.67;2.97;;;;;;;;;;4975015;28;20209;-74
2022/05/21 04:59:12;;;;;;;9.57;3.00;;;;;;;;;;4972642;28;20233;-73
2022/05/21 05:01:39;;;;;;;6.20;2.60;;;;;;;;;;4970376;28;20175;-73
2022/05/21 05:04:05;;;;;;;9.37;2.60;;;;;;;;;;4964384;28;20629;-72
2022/05/21 05:06:31;;;;;;;4.37;2.77;;;;;;;;;;4969063;28;20195;-73
2022/05/21 05:08:57;;;;;;;4.53;2.70;;;;;;;;;;4974218;28;20213;-73
2022/05/21 05:11:23;;;;;;;5.07;3.07;;;;;;;;;;4970906;28;20198;-72
2022/05/21 05:13:49;;;;;;;7.47;3.00;;;;;;;;;;4964514;28;20406;-73
2022/05/21 05:16:15;;;;;;;8.60;3.77;;;;;;;;;;4931167;28;20638;-72
2022/05/21 05:18:41;;;;;;;7.17;2.93;;;;;;;;;;4931718;28;20393;-73
2022/05/21 05:21:07;;;;;;;7.93;3.70;;;;;;;;;;4943770;28;20319;-73
2022/05/21 05:23:33;;;;;;;5.60;2.90;;;;;;;;;;4931547;28;20218;-73
2022/05/21 05:25:59;;;;;;;6.47;3.07;;;;;;;;;;4927395;28;20197;-72
2022/05/21 05:28:25;;;;;;;6.47;3.20;;;;;;;;;;4953776;28;20190;-72
2022/05/21 05:30:53;;;;;;;4.90;2.63;;;;;;;;;;4937418;28;20198;-73
2022/05/21 05:33:19;;;;;;;8.17;3.70;;;;;;;;;;4951940;28;20205;-73
2022/05/21 05:35:45;;;;;;;7.37;3.13;;;;;;;;;;4967338;28;20666;-73
2022/05/21 05:38:11;;;;;;;7.83;3.60;;;;;;;;;;4973601;28;20246;-73
2022/05/21 05:40:37;;;;;;;7.20;2.83;;;;;;;;;;4971388;28;20202;-73
2022/05/21 05:43:03;;;;;;;3.83;2.87;;;;;;;;;;4968984;28;20190;-72
2022/05/21 05:45:29;;;;;;;5.80;2.63;;;;;;;;;;4961957;28;20187;-72
2022/05/21 05:47:56;;;;;;;4.10;2.37;;;;;;;;;;4961263;28;20189;-73
2022/05/21 05:50:22;;;;;;;5.23;3.00;;;;;;;;;;4965679;28;20556;-73
2022/05/21 05:52:48;;;;;;;7.03;2.83;;;;;;;;;;4973865;28;20194;-72
2022/05/21 05:55:14;;;;;;;7.33;2.73;;;;;;;;;;4967743;28;20200;-73
2022/05/21 05:57:40;;;;;;;4.83;2.57;;;;;;;;;;4967028;28;20227;-73
2022/05/21 06:00:07;;;;;;;8.10;3.00;;;;;;;;;;4961735;28;20282;-72
2022/05/21 06:05:18;;;;;;;6.50;3.03;;;;;;;;;;4969409;28;20252;-72
2022/05/21 06:07:45;;;;;;;5.83;2.80;;;;;;;;;;4977553;28;20266;-72
2022/05/21 06:10:11;;;;;;;5.50;3.50;;;;;;;;;;4969617;28;20207;-72
2022/05/21 06:12:37;;;;;;;8.90;3.27;;;;;;;;;;4968922;28;20269;-73
2022/05/21 06:15:03;;;;;;;6.67;3.33;;;;;;;;;;4970064;28;20183;-74
2022/05/21 06:17:29;;;;;;;8.53;3.53;;;;;;;;;;4970883;28;20194;-73
2022/05/21 06:19:55;;;;;;;9.57;3.40;;;;;;;;;;4962811;28;20275;-72
2022/05/21 06:22:21;;;;;;;12.20;4.07;;;;;;;;;;4963480;28;20198;-73
2022/05/21 06:24:47;;;;;;;9.23;4.53;;;;;;;;;;4954263;28;20187;-73
2022/05/21 06:27:13;;;;;;;11.10;3.90;;;;;;;;;;4970602;28;20194;-72
2022/05/21 06:29:39;;;;;;;8.67;4.40;;;;;;;;;;4971175;28;20193;-74
2022/05/21 06:32:05;;;;;;;10.23;4.50;;;;;;;;;;4970065;28;20191;-72
2022/05/21 06:34:31;;;;;;;6.23;3.60;;;;;;;;;;4968838;28;20225;-73
2022/05/21 06:37:02;;;;;;;8.73;4.20;;;;;;;;;;4969437;28;20218;-73
2022/05/21 06:39:28;;;;;;;10.00;4.00;;;;;;;;;;4964350;28;20241;-73
2022/05/21 06:41:55;;;;;;;10.03;4.37;;;;;;;;;;4971849;28;20610;-73
2022/05/21 06:44:21;;;;;;;9.30;3.57;;;;;;;;;;4966864;28;20183;-73
2022/05/21 06:46:47;;;;;;;8.17;3.87;;;;;;;;;;4973903;28;20190;-74
2022/05/21 06:49:13;;;;;;;11.30;4.97;;;;;;;;;;4968215;28;20191;-71
2022/05/21 06:51:39;;;;;;;8.33;4.83;;;;;;;;;;4960121;28;20201;-72
2022/05/21 06:54:05;;;;;;;8.43;5.57;;;;;;;;;;4971811;28;20194;-74
2022/05/21 06:56:31;;;;;;;9.00;4.97;;;;;;;;;;4968949;28;20196;-73
2022/05/21 06:58:57;;;;;;;10.00;4.77;;;;;;;;;;4968393;28;20210;-74
2022/05/21 07:01:23;;;;;;;10.80;4.50;;;;;;;;;;4970166;28;20195;-74
2022/05/21 07:03:49;;;;;;;10.80;5.00;;;;;;;;;;4972033;28;20596;-74
2022/05/21 07:08:59;;;;;;;9.97;4.03;;;;;;;;;;4964717;28;20205;-72
2022/05/21 07:11:26;;;;;;;9.53;4.37;;;;;;;;;;4965863;28;20831;-74
2022/05/21 07:13:52;;;;;;;11.30;4.73;;;;;;;;;;4971328;28;20183;-74
2022/05/21 07:16:18;;;;;;;18.43;4.67;;;;;;;;;;4965014;28;20553;-74
2022/05/21 07:18:46;;;;;;;26.77;5.00;;;;;;;;;;4975618;28;20218;-73
2022/05/21 07:21:15;;;;;;;41.20;5.33;;;;;;;;;;4972529;28;20190;-71
2022/05/21 07:23:41;;;;;;;39.27;5.53;;;;;;;;;;4969246;28;20225;-73
2022/05/21 07:26:07;;;;;;;30.80;5.27;;;;;;;;;;4966875;28;20301;-73
2022/05/21 07:28:33;;;;;;;23.07;5.83;;;;;;;;;;4969933;28;20199;-73
2022/05/21 07:30:59;;;;;;;21.43;4.70;;;;;;;;;;4968068;28;20202;-73
2022/05/21 07:33:25;;;;;;;17.70;4.73;;;;;;;;;;4956189;28;20668;-73
2022/05/21 07:35:51;;;;;;;20.57;5.57;;;;;;;;;;4973572;28;20199;-75
2022/05/21 07:38:17;;;;;;;34.03;6.33;;;;;;;;;;4973834;28;20281;-76
2022/05/21 07:40:44;;;;;;;30.13;6.33;;;;;;;;;;4976979;28;20182;-74
2022/05/21 07:43:33;;;;;;;113.90;11.13;;;;;;;;;;4973894;28;20256;-75
2022/05/21 07:45:59;;;;;;;184.50;18.67;;;;;;;;;;4978202;28;20218;-76
2022/05/21 07:48:25;;;;;;;25.43;5.23;;;;;;;;;;4975916;28;20187;-75
2022/05/21 07:50:52;;;;;;;24.83;5.23;;;;;;;;;;4959335;28;20248;-75
2022/05/21 07:53:19;;;;;;;30.10;5.10;;;;;;;;;;4980217;28;20629;-75
2022/05/21 07:55:46;;;;;;;12.63;4.53;;;;;;;;;;4970864;28;20190;-75
2022/05/21 07:58:12;;;;;;;16.67;3.87;;;;;;;;;;4974708;28;20209;-75
2022/05/21 08:00:38;;;;;;;15.70;4.27;;;;;;;;;;4970821;28;20334;-75
2022/05/21 08:03:04;;;;;;;16.53;4.00;;;;;;;;;;4967858;28;20245;-75
2022/05/21 08:05:30;;;;;;;11.00;3.27;;;;;;;;;;4959761;28;20628;-74
2022/05/21 08:07:56;;;;;;;11.97;3.20;;;;;;;;;;4972250;28;20194;-75
2022/05/21 08:10:22;;;;;;;8.47;3.37;;;;;;;;;;4977713;28;20229;-74
2022/05/21 08:12:49;;;;;;;8.87;3.20;;;;;;;;;;4970341;28;20179;-75
2022/05/21 08:15:15;;;;;;;10.80;3.03;;;;;;;;;;4973531;28;20187;-75
2022/05/21 08:17:41;;;;;;;7.37;3.23;;;;;;;;;;4975632;28;20452;-75
2022/05/21 08:20:07;;;;;;;8.60;3.33;;;;;;;;;;4974462;28;20178;-75
2022/05/21 08:28:02;;;;;;;9.87;3.57;;;;;;;;;;4979316;28;20213;-74
2022/05/21 08:30:28;;;;;;;6.80;3.00;;;;;;;;;;4954525;28;20238;-75
2022/05/21 08:33:00;;;;;;;7.03;2.70;;;;;;;;;;4976733;28;20328;-75
2022/05/21 08:35:27;;;;;;;8.33;3.63;;;;;;;;;;4970147;28;20950;-74
2022/05/21 08:37:52;;;;;;;7.93;3.60;;;;;;;;;;4972157;28;20550;-75
2022/05/21 08:40:19;;;;;;;7.75;3.42;;;;;;;;;;4971322;28;20199;-71
2022/05/21 08:42:47;;;;;;;8.73;4.20;;;;;;;;;;4947585;28;21199;-73
2022/05/21 08:45:27;;;;;;;7.60;3.57;;;;;;;;;;4975639;28;20195;-76
2022/05/21 08:48:02;;;;;;;7.57;3.53;;;;;;;;;;4973024;28;20215;-75
2022/05/21 08:50:32;;;;;;;8.50;3.80;;;;;;;;;;4971106;28;20190;-75
2022/05/21 08:52:59;;;;;;;11.70;3.43;;;;;;;;;;4972365;28;20188;-75
2022/05/21 08:55:36;;;;;;;7.73;3.13;;;;;;;;;;4973739;28;20209;-75
2022/05/21 08:58:02;;;;;;;8.95;3.58;;;;;;;;;;4974700;28;20218;-76
2022/05/21 09:00:37;;;;;;;14.03;3.67;;;;;;;;;;4958675;28;20189;-76
2022/05/21 09:03:05;;;;;;;9.18;3.22;;;;;;;;;;4974681;28;20298;-76
2022/05/21 09:05:31;;;;;;;5.30;2.72;;;;;;;;;;4975089;28;20247;-76
2022/05/21 09:08:03;;;;;;;7.95;2.88;;;;;;;;;;4975223;28;20191;-77
2022/05/21 09:10:39;;;;;;;8.63;3.25;;;;;;;;;;4982568;28;20266;-73
2022/05/21 09:13:12;;;;;;;10.55;3.00;;;;;;;;;;4954793;28;20252;-72
2022/05/21 09:18:22;;;;;;;8.70;2.70;;;;;;;;;;4956139;28;20217;-70
2022/05/21 09:20:55;;;;;;;9.77;2.90;;;;;;;;;;4956279;28;20186;-71
2022/05/21 09:23:21;;;;;;;8.00;3.05;;;;;;;;;;4975699;28;20186;-72
2022/05/21 09:25:47;;;;;;;8.20;3.00;;;;;;;;;;4976889;28;20240;-72
2022/05/21 09:28:13;;;;;;;7.80;2.97;;;;;;;;;;4981893;28;20530;-75
2022/05/21 09:30:42;;;;;;;10.50;2.90;;;;;;;;;;4975625;28;20237;-70
2022/05/21 09:33:25;;;;;;;6.53;2.75;;;;;;;;;;4973237;28;20257;-68
2022/05/21 09:35:55;;;;;;;6.72;2.85;;;;;;;;;;4974169;28;20218;-70
2022/05/21 09:38:23;;;;;;;5.90;2.80;;;;;;;;;;4967239;28;20214;-70
2022/05/21 09:40:49;;;;;;;5.65;2.70;;;;;;;;;;4974911;28;20203;-70
2022/05/21 09:46:20;;;;;;;5.13;2.67;;;;;;;;;;4963764;28;20411;-70
2022/05/21 09:48:46;;;;;;;10.07;3.38;;;;;;;;;;4956206;28;21304;-70
2022/05/21 09:51:22;;;;;;;6.07;2.70;;;;;;;;;;4960124;28;20244;-70
2022/05/21 09:53:48;;;;;;;6.50;3.22;;;;;;;;;;4952747;28;20190;-70
2022/05/21 09:56:24;;;;;;;8.85;3.58;;;;;;;;;;4973218;28;20202;-70
2022/05/21 09:58:54;;;;;;;9.20;3.13;;;;;;;;;;4967357;28;20210;-71
2022/05/21 10:01:33;;;;;;;8.50;3.27;;;;;;;;;;4968264;28;20228;-71
2022/05/21 10:03:59;;;;;;;9.33;3.33;;;;;;;;;;4959389;28;20348;-69
2022/05/21 10:06:27;;;;;;;8.27;3.47;;;;;;;;;;4964716;28;20193;-70
2022/05/21 10:12:04;;;;;;;5.27;2.80;;;;;;;;;;4954241;28;20217;-70
2022/05/21 10:14:38;;;;;;;8.00;3.50;;;;;;;;;;4963452;28;20658;-70
2022/05/21 10:17:18;;;;;;;6.07;2.60;;;;;;;;;;4965519;28;20735;-70
2022/05/21 10:19:54;;;;;;;6.13;3.20;;;;;;;;;;4946336;28;20866;-69
2022/05/21 10:22:26;;;;;;;6.60;3.10;;;;;;;;;;4969771;28;20193;-71
2022/05/21 10:24:54;;;;;;;6.53;3.03;;;;;;;;;;4966835;28;20749;-71
2022/05/21 10:27:27;;;;;;;6.27;3.10;;;;;;;;;;4963275;28;20706;-69
2022/05/21 10:30:05;;;;;;;5.43;2.77;;;;;;;;;;4972556;28;20273;-70
2022/05/21 10:32:44;;;;;;;8.03;3.03;;;;;;;;;;4963097;28;20808;-70
2022/05/21 10:35:22;;;;;;;5.83;3.07;;;;;;;;;;4960211;28;20227;-70
2022/05/21 10:37:55;;;;;;;6.57;3.20;;;;;;;;;;4962865;28;20290;-70
2022/05/21 10:40:35;;;;;;;5.10;2.93;;;;;;;;;;4959077;28;20193;-70
2022/05/21 10:43:14;;;;;;;9.60;3.03;;;;;;;;;;4958567;28;20265;-71
2022/05/21 10:46:00;;;;;;;9.33;3.27;;;;;;;;;;4967257;28;20190;-72
2022/05/21 10:48:52;;;;;;;7.90;3.27;;;;;;;;;;4966516;28;20202;-71
2022/05/21 10:51:33;;;;;;;8.27;3.87;;;;;;;;;;4962348;28;20217;-73
2022/05/21 10:54:17;;;;;;;8.83;3.77;;;;;;;;;;4972075;28;20193;-72
2022/05/21 10:56:51;;;;;;;5.97;3.37;;;;;;;;;;4972797;28;20735;-71
2022/05/21 10:59:29;;;;;;;8.43;3.70;;;;;;;;;;4969378;28;20627;-73
2022/05/21 11:02:00;;;;;;;5.67;3.40;;;;;;;;;;4971464;28;20193;-73
2022/05/21 11:04:45;;;;;;;8.50;3.73;;;;;;;;;;4972849;28;20327;-75
2022/05/21 11:07:13;;;;;;;6.93;3.20;;;;;;;;;;4967170;28;20775;-75
2022/05/21 11:09:58;;;;;;;6.67;2.90;;;;;;;;;;4977924;28;20814;-75
2022/05/21 11:12:42;;;;;;;5.60;2.88;;;;;;;;;;4969898;28;20197;-74
2022/05/21 11:15:19;;;;;;;5.35;2.78;;;;;;;;;;4970881;28;20217;-75
2022/05/21 11:17:47;;;;;;;4.85;2.60;;;;;;;;;;4966115;28;20249;-75
2022/05/21 11:20:13;;;;;;;5.20;2.20;;;;;;;;;;4966101;28;20836;-76
2022/05/21 11:22:45;;;;;;;5.13;2.17;;;;;;;;;;4972554;28;20186;-75
2022/05/21 11:25:13;;;;;;;5.95;2.38;;;;;;;;;;4974310;28;20329;-75
2022/05/21 11:27:56;;;;;;;5.13;2.65;;;;;;;;;;4968660;28;20206;-74
2022/05/21 11:30:22;;;;;;;5.30;2.40;;;;;;;;;;4972455;28;20190;-75
2022/05/21 11:38:30;;;;;;;5.70;2.60;;;;;;;;;;4968670;28;20272;-75
2022/05/21 11:46:46;;;;;;;5.95;2.50;;;;;;;;;;4965756;28;20221;-74
2022/05/21 11:49:27;;;;;;;6.45;2.28;;;;;;;;;;4971352;28;20190;-75
2022/05/21 11:51:58;;;;;;;6.80;2.63;;;;;;;;;;4972189;28;20187;-74
2022/05/21 11:54:42;;;;;;;7.07;3.20;;;;;;;;;;4976439;28;20182;-74
2022/05/21 11:57:08;;;;;;;4.40;2.50;;;;;;;;;;4977734;28;20281;-73
2022/05/21 11:59:51;;;;;;;5.63;2.47;;;;;;;;;;4970808;28;20719;-74
2022/05/21 12:02:18;;;;;;;4.90;2.50;;;;;;;;;;4977763;28;20191;-75
2022/05/21 12:04:44;;;;;;;6.47;3.13;;;;;;;;;;4952127;28;20578;-75
2022/05/21 12:07:13;;;;;;;6.10;2.60;;;;;;;;;;4976386;28;20182;-74
2022/05/21 12:09:39;;;;;;;3.10;1.98;;;;;;;;;;4972145;28;20604;-75
2022/05/21 12:12:16;;;;;;;5.47;2.53;;;;;;;;;;4944545;28;20203;-74
2022/05/21 12:14:51;;;;;;;6.95;2.42;;;;;;;;;;4971638;28;20178;-75
2022/05/21 12:17:37;;;;;;;6.85;2.97;;;;;;;;;;4956402;28;20675;-73
2022/05/21 12:20:04;;;;;;;10.77;2.60;;;;;;;;;;4930305;28;20642;-75
2022/05/21 12:22:34;;;;;;;7.05;2.90;;;;;;;;;;4938764;28;20190;-73
2022/05/21 12:25:00;;;;;;;6.78;2.72;;;;;;;;;;4937578;28;20621;-73
2022/05/21 12:27:27;;;;;;;8.75;2.60;;;;;;;;;;4941932;28;20670;-73
2022/05/21 12:30:01;;;;;;;7.95;2.33;;;;;;;;;;4947925;28;20603;-76
2022/05/21 12:32:27;;;;;;;4.00;2.17;;;;;;;;;;4953818;28;20187;-76
2022/05/21 12:35:11;;;;;;;4.63;2.20;;;;;;;;;;4960249;28;20190;-77
2022/05/21 12:37:41;;;;;;;6.35;2.10;;;;;;;;;;4956435;28;20201;-77
2022/05/21 12:40:29;;;;;;;5.43;1.75;;;;;;;;;;4967701;28;20306;-77
2022/05/21 12:43:13;;;;;;;5.32;1.80;;;;;;;;;;4979114;28;20178;-76
2022/05/21 12:45:44;;;;;;;4.63;1.80;;;;;;;;;;4977439;28;20209;-76
2022/05/21 12:48:13;;;;;;;4.15;1.80;;;;;;;;;;4948620;28;20548;-77
2022/05/21 12:50:46;;;;;;;5.30;2.00;;;;;;;;;;4972054;28;20183;-77
2022/05/21 12:53:12;;;;;;;5.93;2.30;;;;;;;;;;4966439;28;20527;-77
2022/05/21 12:55:38;;;;;;;5.20;1.90;;;;;;;;;;4982564;28;20183;-77
2022/05/21 12:58:08;;;;;;;4.93;2.25;;;;;;;;;;4977222;28;20671;-77
2022/05/21 13:00:34;;;;;;;3.25;1.92;;;;;;;;;;4981404;28;20179;-77
2022/05/21 13:03:05;;;;;;;3.63;2.00;;;;;;;;;;4961149;28;20230;-76
2022/05/21 13:05:32;;;;;;;7.28;2.35;;;;;;;;;;4964687;28;20186;-76
2022/05/21 13:08:01;;;;;;;4.45;2.28;;;;;;;;;;4980992;28;20178;-76
2022/05/21 13:10:31;;;;;;;5.07;2.25;;;;;;;;;;4978025;28;20626;-77
2022/05/21 13:13:02;;;;;;;3.60;2.00;;;;;;;;;;4979303;28;20237;-76
2022/05/21 13:15:40;;;;;;;8.48;2.40;;;;;;;;;;4975121;28;20186;-76
2022/05/21 13:18:24;;;;;;;5.97;2.38;;;;;;;;;;4976133;28;20639;-76
2022/05/21 13:20:53;;;;;;;5.13;2.80;;;;;;;;;;4977599;28;20194;-76
2022/05/21 13:23:24;;;;;;;6.75;2.60;;;;;;;;;;4986679;28;20197;-77
2022/05/21 13:25:51;;;;;;;3.50;2.20;;;;;;;;;;4981971;28;20309;-77
2022/05/21 13:28:17;;;;;;;3.38;2.28;;;;;;;;;;4975917;28;20629;-77
2022/05/21 13:30:47;;;;;;;4.57;2.25;;;;;;;;;;4976789;28;20198;-77
2022/05/21 13:33:16;;;;;;;3.63;2.30;;;;;;;;;;4980307;28;20325;-77
2022/05/21 13:35:42;;;;;;;5.40;2.30;;;;;;;;;;4976440;28;20652;-75
2022/05/21 13:38:12;;;;;;;4.10;2.22;;;;;;;;;;4980292;28;20209;-76
2022/05/21 13:40:49;;;;;;;4.90;2.25;;;;;;;;;;4964991;28;20627;-76
2022/05/21 13:43:15;;;;;;;6.90;2.35;;;;;;;;;;4961302;28;20191;-76
2022/05/21 13:45:44;;;;;;;3.85;2.40;;;;;;;;;;4981539;28;20195;-76
2022/05/21 13:48:10;;;;;;;3.78;2.30;;;;;;;;;;4960039;28;20184;-76
2022/05/21 13:50:36;;;;;;;4.53;2.03;;;;;;;;;;4976438;28;20738;-77
2022/05/21 13:53:02;;;;;;;4.68;2.50;;;;;;;;;;4963246;28;20578;-76
2022/05/21 13:55:28;;;;;;;4.35;2.72;;;;;;;;;;4982790;28;20327;-76
2022/05/21 13:58:06;;;;;;;4.85;2.60;;;;;;;;;;4979601;28;20613;-77
2022/05/21 14:00:34;;;;;;;5.10;2.10;;;;;;;;;;4964376;28;20183;-76
2022/05/21 14:03:16;;;;;;;6.07;2.03;;;;;;;;;;4984612;28;20774;-76
2022/05/21 14:05:49;;;;;;;3.83;2.00;;;;;;;;;;4985720;28;20174;-76
2022/05/21 14:08:19;;;;;;;2.80;1.95;;;;;;;;;;4976449;28;20226;-77
2022/05/21 14:10:47;;;;;;;3.35;2.13;;;;;;;;;;4977619;28;20194;-77
2022/05/21 14:13:32;;;;;;;2.70;1.90;;;;;;;;;;4983060;28;20175;-78
2022/05/21 14:15:58;;;;;;;4.43;1.98;;;;;;;;;;4978065;28;20190;-77
2022/05/21 14:18:29;;;;;;;4.95;2.00;;;;;;;;;;4982013;28;20212;-77
2022/05/21 14:21:18;;;;;;;4.47;1.83;;;;;;;;;;4974768;28;20310;-77
2022/05/21 14:23:44;;;;;;;3.67;2.17;;;;;;;;;;4974269;28;20202;-76
2022/05/21 14:26:11;;;;;;;3.33;2.10;;;;;;;;;;4974098;28;20190;-76
2022/05/21 14:28:38;;;;;;;3.08;2.10;;;;;;;;;;4981078;28;20191;-77
2022/05/21 14:31:20;;;;;;;3.85;2.03;;;;;;;;;;4979560;28;20560;-76
2022/05/21 14:33:53;;;;;;;5.03;2.20;;;;;;;;;;4981465;28;20268;-76
2022/05/21 14:36:26;;;;;;;3.13;2.10;;;;;;;;;;4986058;28;20202;-76
2022/05/21 14:38:52;;;;;;;3.72;1.95;;;;;;;;;;4974156;28;20209;-77
2022/05/21 14:41:29;;;;;;;7.72;2.17;;;;;;;;;;4976667;28;20234;-77
2022/05/21 14:43:55;;;;;;;5.13;1.98;;;;;;;;;;4979918;28;20237;-78
2022/05/21 14:49:05;;;;;;;5.32;1.77;;;;;;;;;;4976462;28;20767;-77
2022/05/21 14:54:16;;;;;;;3.08;1.77;;;;;;;;;;4980485;28;20216;-77
2022/05/21 14:56:41;;;;;;;4.15;1.88;;;;;;;;;;4961927;28;20202;-77
2022/05/21 14:59:09;;;;;;;7.03;2.00;;;;;;;;;;4975378;28;20214;-77
2022/05/21 15:01:35;;;;;;;4.45;1.90;;;;;;;;;;4961701;28;20189;-76
2022/05/21 15:04:00;;;;;;;3.17;1.77;;;;;;;;;;4975638;28;20234;-76
2022/05/21 15:06:28;;;;;;;5.28;1.92;;;;;;;;;;4974005;28;20187;-76
2022/05/21 15:08:57;;;;;;;3.92;1.80;;;;;;;;;;4982810;28;20205;-77
2022/05/21 15:11:23;;;;;;;4.78;2.00;;;;;;;;;;4973226;28;20546;-77
2022/05/21 15:13:49;;;;;;;5.03;2.33;;;;;;;;;;4978966;28;20186;-77
2022/05/21 15:16:15;;;;;;;4.55;1.95;;;;;;;;;;4973168;28;20266;-77
2022/05/21 15:18:41;;;;;;;4.57;1.80;;;;;;;;;;4985621;28;20677;-77
2022/05/21 15:21:12;;;;;;;6.95;2.00;;;;;;;;;;4981154;28;20208;-77
2022/05/21 15:23:38;;;;;;;7.38;2.20;;;;;;;;;;4978232;28;20217;-76
2022/05/21 15:26:04;;;;;;;3.42;1.60;;;;;;;;;;4979787;28;20191;-75
2022/05/21 15:28:31;;;;;;;4.22;1.73;;;;;;;;;;4974658;28;20683;-77
2022/05/21 15:30:57;;;;;;;5.47;2.03;;;;;;;;;;4968077;28;20551;-77
2022/05/21 15:33:24;;;;;;;4.47;2.10;;;;;;;;;;4986499;28;20209;-77
2022/05/21 15:35:51;;;;;;;3.83;1.70;;;;;;;;;;4979394;28;20195;-76
2022/05/21 15:38:17;;;;;;;5.13;1.70;;;;;;;;;;4980408;28;20758;-77
2022/05/21 15:40:43;;;;;;;3.47;1.73;;;;;;;;;;4974656;28;20191;-77